Time;durP1;ratioP1;P1;durP2;ratioP2;P2;SDS_P1;SDS_P2;PMS_P1;PMS_P2;Temp;Humidity;BMP_temperature;BMP_pressure;BME280_temperature;BME280_humidity;BME280_pressure;Samples;Min_cycle;Max_cycle;Signal;HPM_P1;HPM_P2
2023/12/06 00:00:01;;;;;;;27.25;12.57;;;;;;;;;;5127468;28;20059;-90
2023/12/06 00:02:30;;;;;;;31.05;11.13;;;;;;;;;;5129677;28;20061;-89
2023/12/06 00:05:11;;;;;;;25.25;10.02;;;;;;;;;;5148891;27;20464;-89
2023/12/06 00:07:39;;;;;;;25.58;11.60;;;;;;;;;;5131690;28;20051;-89
2023/12/06 00:10:16;;;;;;;26.63;11.77;;;;;;;;;;5127493;28;20235;-89
2023/12/06 00:12:45;;;;;;;30.75;12.05;;;;;;;;;;5126172;28;20043;-90
2023/12/06 00:15:21;;;;;;;22.67;11.00;;;;;;;;;;5127935;27;20314;-90
2023/12/06 00:17:50;;;;;;;29.33;11.10;;;;;;;;;;5125417;28;20294;-90
2023/12/06 00:20:21;;;;;;;26.58;11.40;;;;;;;;;;5125373;28;20052;-90
2023/12/06 00:23:02;;;;;;;21.13;10.90;;;;;;;;;;5124879;28;20061;-90
2023/12/06 00:25:32;;;;;;;20.70;11.05;;;;;;;;;;5126236;28;20054;-89
2023/12/06 00:28:04;;;;;;;26.67;10.65;;;;;;;;;;5128816;27;20048;-89
2023/12/06 00:30:39;;;;;;;28.55;12.25;;;;;;;;;;5127369;28;20054;-90
2023/12/06 00:33:07;;;;;;;22.67;11.23;;;;;;;;;;5126197;28;20562;-91
2023/12/06 00:35:37;;;;;;;27.35;11.15;;;;;;;;;;5126251;28;20061;-90
2023/12/06 00:38:05;;;;;;;27.75;12.18;;;;;;;;;;5128451;28;20434;-90
2023/12/06 00:40:37;;;;;;;27.23;12.02;;;;;;;;;;5128143;28;20071;-90
2023/12/06 00:43:05;;;;;;;27.17;11.50;;;;;;;;;;5126505;27;20075;-90
2023/12/06 00:45:41;;;;;;;21.70;10.75;;;;;;;;;;5126502;28;20047;-89
2023/12/06 00:48:10;;;;;;;28.02;10.88;;;;;;;;;;5126178;28;20043;-89
2023/12/06 00:50:42;;;;;;;30.17;11.32;;;;;;;;;;5125999;28;20047;-91
2023/12/06 00:53:22;;;;;;;30.73;12.50;;;;;;;;;;5124880;28;20058;-90
2023/12/06 00:55:56;;;;;;;24.20;11.25;;;;;;;;;;5126007;28;20048;-91
2023/12/06 00:58:28;;;;;;;29.30;12.18;;;;;;;;;;5127306;28;20050;-90
2023/12/06 01:01:00;;;;;;;23.48;10.82;;;;;;;;;;5126953;28;20052;-90
2023/12/06 01:03:33;;;;;;;27.85;10.55;;;;;;;;;;5125446;28;20048;-91
2023/12/06 01:06:14;;;;;;;23.55;10.45;;;;;;;;;;5113317;28;20059;-91
2023/12/06 01:08:48;;;;;;;30.60;11.57;;;;;;;;;;5125797;27;20048;-90
2023/12/06 01:11:29;;;;;;;25.88;11.48;;;;;;;;;;5125463;28;20031;-89
2023/12/06 01:14:09;;;;;;;25.90;10.77;;;;;;;;;;5123526;28;20067;-90
2023/12/06 01:16:39;;;;;;;23.08;10.90;;;;;;;;;;5125131;28;20062;-90
2023/12/06 01:19:11;;;;;;;30.05;11.40;;;;;;;;;;5125100;28;20230;-90
2023/12/06 01:21:52;;;;;;;20.35;9.75;;;;;;;;;;5123783;28;20054;-90
2023/12/06 01:24:21;;;;;;;25.35;11.88;;;;;;;;;;5126185;28;20060;-91
2023/12/06 01:26:56;;;;;;;23.02;10.43;;;;;;;;;;5125059;28;20056;-91
2023/12/06 01:29:24;;;;;;;24.35;10.25;;;;;;;;;;5128500;28;20054;-91
2023/12/06 01:31:57;;;;;;;20.85;11.15;;;;;;;;;;5130746;28;20240;-90
2023/12/06 01:34:24;;;;;;;22.65;10.50;;;;;;;;;;5128524;28;20058;-90
2023/12/06 01:36:56;;;;;;;22.67;10.90;;;;;;;;;;5117397;22;20044;-89
2023/12/06 01:39:28;;;;;;;20.10;9.67;;;;;;;;;;5087309;28;20135;-91
2023/12/06 01:42:10;;;;;;;22.42;10.35;;;;;;;;;;5085288;28;20454;-90
2023/12/06 01:44:46;;;;;;;24.23;9.48;;;;;;;;;;5088655;28;20059;-90
2023/12/06 01:47:28;;;;;;;19.50;9.48;;;;;;;;;;5081675;28;20044;-90
2023/12/06 01:50:05;;;;;;;21.67;10.27;;;;;;;;;;5087604;28;20062;-91
2023/12/06 01:52:43;;;;;;;19.83;9.73;;;;;;;;;;5084267;28;20064;-90
2023/12/06 01:55:14;;;;;;;22.52;9.68;;;;;;;;;;5085091;28;20063;-91
2023/12/06 01:57:55;;;;;;;20.65;9.63;;;;;;;;;;5081335;28;20313;-90
2023/12/06 02:00:24;;;;;;;23.45;10.45;;;;;;;;;;5087302;28;20048;-90
2023/12/06 02:02:53;;;;;;;23.25;10.38;;;;;;;;;;5094907;28;20052;-90
2023/12/06 02:05:23;;;;;;;22.40;10.75;;;;;;;;;;5094569;28;20036;-89
2023/12/06 02:07:54;;;;;;;24.10;11.15;;;;;;;;;;5094629;28;20032;-90
2023/12/06 02:10:35;;;;;;;22.90;9.68;;;;;;;;;;5093890;28;20045;-90
2023/12/06 02:13:10;;;;;;;26.05;11.23;;;;;;;;;;5094921;28;20047;-89
2023/12/06 02:15:39;;;;;;;31.17;11.88;;;;;;;;;;5095316;28;20040;-90
2023/12/06 02:18:08;;;;;;;25.67;10.88;;;;;;;;;;5094452;28;20058;-89
2023/12/06 02:20:38;;;;;;;26.23;11.10;;;;;;;;;;5093808;28;20108;-90
2023/12/06 02:23:20;;;;;;;25.20;10.80;;;;;;;;;;5090496;28;20032;-91
2023/12/06 02:25:53;;;;;;;25.73;9.77;;;;;;;;;;5091409;28;20060;-89
2023/12/06 02:28:34;;;;;;;19.85;9.00;;;;;;;;;;5086135;28;20068;-90
2023/12/06 02:31:03;;;;;;;22.80;10.68;;;;;;;;;;5086275;28;20048;-91
2023/12/06 02:33:35;;;;;;;24.38;11.13;;;;;;;;;;5085533;28;20048;-90
2023/12/06 02:36:14;;;;;;;26.95;13.00;;;;;;;;;;5085458;28;20056;-91
2023/12/06 02:38:46;;;;;;;24.77;10.55;;;;;;;;;;5087048;28;20320;-90
2023/12/06 02:41:20;;;;;;;25.98;12.52;;;;;;;;;;5086824;28;20079;-90
2023/12/06 02:43:58;;;;;;;24.83;11.47;;;;;;;;;;5085450;28;20048;-90
2023/12/06 02:46:38;;;;;;;;;;;;;;;;;;5084276;28;20485;-90
2023/12/06 02:49:19;;;;;;;28.98;11.90;;;;;;;;;;5083985;28;19943;-90
2023/12/06 02:52:04;;;;;;;25.35;11.82;;;;;;;;;;5083739;28;20040;-91
2023/12/06 02:54:35;;;;;;;29.27;10.90;;;;;;;;;;5087243;28;20049;-90
2023/12/06 02:57:07;;;;;;;23.63;10.52;;;;;;;;;;5092705;28;20048;-90
2023/12/06 02:59:47;;;;;;;26.95;11.48;;;;;;;;;;5088555;28;20056;-91
2023/12/06 03:02:20;;;;;;;28.40;11.05;;;;;;;;;;5086179;28;20066;-91
2023/12/06 03:05:00;;;;;;;23.10;9.40;;;;;;;;;;5063764;28;20044;-90
2023/12/06 03:07:39;;;;;;;27.25;11.80;;;;;;;;;;5085294;28;20055;-89
2023/12/06 03:10:07;;;;;;;20.77;9.77;;;;;;;;;;5085400;28;20052;-90
2023/12/06 03:12:38;;;;;;;23.23;11.98;;;;;;;;;;5103720;28;20092;-90
2023/12/06 03:15:19;;;;;;;25.02;10.68;;;;;;;;;;5082858;28;20040;-90
2023/12/06 03:17:50;;;;;;;26.30;11.30;;;;;;;;;;5083869;28;20056;-89
2023/12/06 03:20:21;;;;;;;26.17;10.82;;;;;;;;;;5082856;28;20064;-91
2023/12/06 03:23:02;;;;;;;22.60;11.88;;;;;;;;;;5083676;28;20040;-90
2023/12/06 03:25:43;;;;;;;20.50;9.10;;;;;;;;;;5084280;28;20057;-90
2023/12/06 03:28:26;;;;;;;24.40;11.23;;;;;;;;;;5083490;28;20049;-90
2023/12/06 03:30:57;;;;;;;21.75;9.90;;;;;;;;;;5086640;28;20532;-90
2023/12/06 03:33:27;;;;;;;24.95;9.98;;;;;;;;;;5087058;28;20174;-91
2023/12/06 03:35:59;;;;;;;30.52;11.65;;;;;;;;;;5087253;28;20056;-91
2023/12/06 03:38:40;;;;;;;25.98;11.10;;;;;;;;;;5084451;28;20095;-90
2023/12/06 03:41:10;;;;;;;26.38;10.55;;;;;;;;;;5087966;28;20063;-90
2023/12/06 03:43:42;;;;;;;20.08;9.45;;;;;;;;;;5087312;28;20052;-90
2023/12/06 03:46:28;;;;;;;28.63;10.30;;;;;;;;;;5087935;28;20044;-90
2023/12/06 03:48:57;;;;;;;26.17;10.32;;;;;;;;;;5087826;28;20139;-91
2023/12/06 03:51:38;;;;;;;23.23;10.48;;;;;;;;;;5086021;28;20052;-90
2023/12/06 03:54:19;;;;;;;24.13;10.93;;;;;;;;;;5087794;28;20066;-91
2023/12/06 03:57:01;;;;;;;27.27;11.40;;;;;;;;;;5087371;28;20056;-90
2023/12/06 03:59:34;;;;;;;31.27;10.32;;;;;;;;;;5088533;28;20297;-90
2023/12/06 04:02:10;;;;;;;21.40;10.13;;;;;;;;;;5085786;28;20052;-91
2023/12/06 04:04:55;;;;;;;24.90;9.50;;;;;;;;;;5083835;28;20335;-90
2023/12/06 04:07:25;;;;;;;25.23;10.77;;;;;;;;;;5086091;28;20447;-90
2023/12/06 04:10:06;;;;;;;29.23;11.43;;;;;;;;;;5086072;28;20400;-90
2023/12/06 04:12:39;;;;;;;26.73;10.90;;;;;;;;;;5086137;28;20139;-91
2023/12/06 04:15:07;;;;;;;23.80;10.35;;;;;;;;;;5086997;28;20053;-90
2023/12/06 04:17:36;;;;;;;30.17;10.98;;;;;;;;;;5089745;28;20060;-91
2023/12/06 04:20:17;;;;;;;33.03;12.10;;;;;;;;;;5086894;28;20044;-91
2023/12/06 04:22:47;;;;;;;33.60;11.95;;;;;;;;;;5089960;28;20057;-91
2023/12/06 04:25:27;;;;;;;35.97;12.55;;;;;;;;;;5090554;28;20055;-90
2023/12/06 04:28:07;;;;;;;25.13;10.38;;;;;;;;;;5086402;28;20080;-90
2023/12/06 04:30:40;;;;;;;26.05;10.93;;;;;;;;;;5088054;28;20131;-90
2023/12/06 04:33:08;;;;;;;21.52;9.50;;;;;;;;;;5085713;28;20076;-90
2023/12/06 04:35:46;;;;;;;23.38;9.57;;;;;;;;;;5084991;28;20076;-90
2023/12/06 04:38:24;;;;;;;28.60;10.75;;;;;;;;;;5086092;28;20060;-91
2023/12/06 04:41:06;;;;;;;28.63;11.55;;;;;;;;;;5085571;28;20057;-91
2023/12/06 04:43:48;;;;;;;23.17;10.88;;;;;;;;;;5084000;28;20082;-91
2023/12/06 04:46:29;;;;;;;28.15;10.15;;;;;;;;;;5086686;28;20063;-91
2023/12/06 04:49:05;;;;;;;28.80;11.70;;;;;;;;;;5086784;28;20112;-91
2023/12/06 04:51:33;;;;;;;24.60;9.25;;;;;;;;;;5083663;28;20137;-91
2023/12/06 04:54:02;;;;;;;26.77;10.63;;;;;;;;;;5085147;28;20126;-91
2023/12/06 04:56:42;;;;;;;24.20;10.35;;;;;;;;;;5084196;28;20078;-91
2023/12/06 04:59:24;;;;;;;25.00;10.23;;;;;;;;;;5085481;28;20375;-91
2023/12/06 05:01:57;;;;;;;26.58;11.98;;;;;;;;;;5085629;28;20083;-92
2023/12/06 05:14:58;;;;;;;32.50;11.98;;;;;;;;;;5544365;22;20114;-91
2023/12/06 05:17:54;;;;;;;33.22;12.15;;;;;;;;;;5069218;28;20045;-91
2023/12/06 05:20:37;;;;;;;29.10;11.55;;;;;;;;;;5085702;28;20454;-91
2023/12/06 05:23:07;;;;;;;29.63;11.77;;;;;;;;;;5068549;28;20089;-90
2023/12/06 05:25:58;;;;;;;29.73;12.40;;;;;;;;;;5083651;28;20093;-90
2023/12/06 05:28:39;;;;;;;32.42;12.57;;;;;;;;;;5052106;28;20522;-89
2023/12/06 05:31:23;;;;;;;33.85;13.68;;;;;;;;;;5049111;28;20048;-89
2023/12/06 05:37:26;;;;;;;31.80;13.40;;;;;;;;;;5044141;28;20384;-91
2023/12/06 05:40:10;;;;;;;35.42;14.48;;;;;;;;;;5167457;22;20048;-89
2023/12/06 05:48:05;;;;;;;42.47;14.05;;;;;;;;;;5756399;22;20110;-90
2023/12/06 05:50:49;;;;;;;46.75;15.43;;;;;;;;;;5068346;28;20049;-89
2023/12/06 05:53:38;;;;;;;37.05;13.80;;;;;;;;;;5067201;28;20048;-89
2023/12/06 05:56:23;;;;;;;42.50;15.23;;;;;;;;;;5082080;28;20108;-89
2023/12/06 05:59:07;;;;;;;36.65;15.27;;;;;;;;;;5063877;28;20398;-90
2023/12/06 06:01:48;;;;;;;48.33;16.85;;;;;;;;;;5064325;28;20052;-90
2023/12/06 06:04:32;;;;;;;46.10;13.93;;;;;;;;;;5080926;28;20056;-89
2023/12/06 06:07:16;;;;;;;41.60;14.60;;;;;;;;;;5063430;28;20048;-89
2023/12/06 06:09:55;;;;;;;38.97;14.95;;;;;;;;;;5082780;28;20117;-88
2023/12/06 06:12:38;;;;;;;38.80;16.33;;;;;;;;;;5064053;28;20114;-90
2023/12/06 06:15:08;;;;;;;32.70;14.82;;;;;;;;;;5064240;28;20045;-89
2023/12/06 06:17:41;;;;;;;46.75;16.40;;;;;;;;;;5064286;28;20171;-90
2023/12/06 06:20:22;;;;;;;39.42;13.75;;;;;;;;;;5062456;28;20400;-90
2023/12/06 06:22:52;;;;;;;41.65;16.33;;;;;;;;;;5062395;28;20052;-89
2023/12/06 06:25:38;;;;;;;34.53;15.25;;;;;;;;;;5065133;28;20078;-89
2023/12/06 06:28:12;;;;;;;41.30;15.38;;;;;;;;;;5066123;28;20082;-88
2023/12/06 06:31:00;;;;;;;44.90;15.60;;;;;;;;;;5066226;28;20071;-89
2023/12/06 06:33:43;;;;;;;44.50;15.50;;;;;;;;;;5064201;28;20048;-88
2023/12/06 06:36:23;;;;;;;45.25;16.05;;;;;;;;;;5062034;28;20053;-88
2023/12/06 06:38:52;;;;;;;51.47;17.75;;;;;;;;;;5068242;28;20048;-88
2023/12/06 06:41:36;;;;;;;42.40;16.63;;;;;;;;;;5071689;28;20060;-89
2023/12/06 06:44:22;;;;;;;39.80;15.95;;;;;;;;;;5066731;28;20052;-88
2023/12/06 06:47:03;;;;;;;47.33;17.25;;;;;;;;;;5079259;28;20037;-89
2023/12/06 06:59:06;;;;;;;42.42;14.68;;;;;;;;;;5697084;22;20060;-88
2023/12/06 07:01:37;;;;;;;41.58;15.55;;;;;;;;;;5058738;28;20103;-88
2023/12/06 07:04:23;;;;;;;40.10;14.02;;;;;;;;;;5066205;28;20315;-89
2023/12/06 16:12:51;;;;;;;22.63;11.27;;;;;;;;;;6124953;23;20364;31
2023/12/06 16:26:44;;;;;;;;;;;;;;;;;;;;;
2023/12/06 18:04:58;;;;;;;26.80;15.30;;;;;;;;;;5644929;23;20771;-91
2023/12/06 18:07:32;;;;;;;24.98;13.45;;;;;;;;;;5024913;28;20505;-92
2023/12/06 18:10:04;;;;;;;23.08;13.05;;;;;;;;;;5007668;28;20521;-92
2023/12/06 18:12:46;;;;;;;28.00;13.00;;;;;;;;;;5010055;28;20045;-91
2023/12/06 18:15:18;;;;;;;25.65;14.20;;;;;;;;;;5009437;28;20073;-92
2023/12/06 18:17:47;;;;;;;24.23;12.98;;;;;;;;;;5006048;28;20282;-92
2023/12/06 18:20:15;;;;;;;26.10;13.30;;;;;;;;;;5005291;28;20104;-92
2023/12/06 18:22:58;;;;;;;25.77;12.98;;;;;;;;;;5207385;23;20061;-92
2023/12/06 18:25:35;;;;;;;32.40;12.27;;;;;;;;;;5025029;28;20084;-91
2023/12/06 18:28:09;;;;;;;27.52;13.50;;;;;;;;;;5024911;28;20076;-93
2023/12/06 18:30:41;;;;;;;24.35;12.70;;;;;;;;;;5008031;28;20080;-92
2023/12/06 18:33:11;;;;;;;22.52;12.10;;;;;;;;;;5006761;28;20069;-91
2023/12/06 18:35:53;;;;;;;26.15;11.55;;;;;;;;;;5009439;28;20045;-91
2023/12/06 18:38:26;;;;;;;26.45;12.23;;;;;;;;;;5005819;28;20085;-92
2023/12/06 18:41:08;;;;;;;24.35;12.07;;;;;;;;;;5011451;28;20050;-91
2023/12/06 18:43:40;;;;;;;27.45;13.73;;;;;;;;;;4997757;28;20127;-92
2023/12/06 18:46:10;;;;;;;26.30;12.43;;;;;;;;;;5007082;28;20132;-91
2023/12/06 18:48:43;;;;;;;24.55;12.23;;;;;;;;;;5007400;28;20076;-92
2023/12/06 18:51:20;;;;;;;25.27;12.77;;;;;;;;;;5007222;28;20128;-91
2023/12/06 18:54:13;;;;;;;26.08;13.13;;;;;;;;;;5005222;28;20131;-89
2023/12/06 18:56:56;;;;;;;20.95;11.75;;;;;;;;;;5007956;28;20030;-91
2023/12/06 18:59:48;;;;;;;23.10;11.52;;;;;;;;;;5023804;28;20042;-90
2023/12/06 19:02:39;;;;;;;23.02;12.00;;;;;;;;;;5008470;28;20040;-90
2023/12/06 19:05:28;;;;;;;30.85;12.05;;;;;;;;;;5012670;28;20022;-89
2023/12/06 19:08:11;;;;;;;27.17;12.00;;;;;;;;;;5024249;28;20048;-90
2023/12/06 19:11:03;;;;;;;25.85;12.48;;;;;;;;;;5014167;28;20050;-89
2023/12/06 19:13:57;;;;;;;25.27;11.85;;;;;;;;;;5018433;28;20042;-90
2023/12/06 19:16:54;;;;;;;22.17;11.27;;;;;;;;;;5023263;28;20046;-89
2023/12/06 19:19:52;;;;;;;24.00;12.55;;;;;;;;;;5010483;28;20030;-90
2023/12/06 19:22:38;;;;;;;20.63;11.07;;;;;;;;;;5013228;28;20072;-90
2023/12/06 19:25:38;;;;;;;23.13;12.60;;;;;;;;;;5007943;28;20038;-89
2023/12/06 19:28:28;;;;;;;23.73;12.38;;;;;;;;;;5006887;28;20068;-89
2023/12/06 19:31:12;;;;;;;21.25;11.93;;;;;;;;;;4994541;28;20042;-89
2023/12/06 19:34:02;;;;;;;21.17;10.88;;;;;;;;;;5005763;28;20046;-89
2023/12/06 19:36:50;;;;;;;25.27;12.18;;;;;;;;;;5007426;28;20174;-89
2023/12/06 19:39:45;;;;;;;22.42;12.55;;;;;;;;;;5005685;28;20045;-89
2023/12/06 19:42:39;;;;;;;23.92;12.55;;;;;;;;;;5005212;28;20046;-90
2023/12/06 19:45:51;;;;;;;26.75;13.82;;;;;;;;;;5007482;28;20038;-91
2023/12/06 19:48:57;;;;;;;23.52;12.35;;;;;;;;;;4969553;29;20031;-89
2023/12/06 19:52:01;;;;;;;24.30;13.07;;;;;;;;;;4952700;29;20047;-89
2023/12/06 19:55:06;;;;;;;26.65;14.18;;;;;;;;;;4968260;29;20031;-90
2023/12/06 19:58:05;;;;;;;25.63;12.75;;;;;;;;;;4964248;28;20046;-90
2023/12/06 20:00:53;;;;;;;25.30;12.38;;;;;;;;;;4965117;29;20078;-90
2023/12/06 20:03:46;;;;;;;28.88;16.23;;;;;;;;;;4953375;29;20347;-90
2023/12/06 20:06:38;;;;;;;23.67;13.10;;;;;;;;;;4952063;29;20192;-89
2023/12/06 20:09:50;;;;;;;22.63;11.95;;;;;;;;;;4966376;28;20075;-90
2023/12/06 20:13:10;;;;;;;29.15;13.85;;;;;;;;;;4952339;28;20044;-90
2023/12/06 20:16:30;;;;;;;24.92;12.23;;;;;;;;;;4969561;29;20056;-90
2023/12/06 20:19:36;;;;;;;28.83;14.52;;;;;;;;;;4987229;28;20049;-90
2023/12/06 20:22:39;;;;;;;28.05;14.13;;;;;;;;;;5013042;23;20047;-91
2023/12/06 20:25:28;;;;;;;26.30;14.13;;;;;;;;;;4990146;28;20046;-90
2023/12/06 20:28:27;;;;;;;28.75;13.52;;;;;;;;;;4996220;28;20082;-91
2023/12/06 20:31:38;;;;;;;30.20;14.48;;;;;;;;;;5007610;28;20053;-89
2023/12/06 20:34:28;;;;;;;26.75;14.63;;;;;;;;;;4991455;28;20035;-90
2023/12/06 20:37:20;;;;;;;27.15;14.48;;;;;;;;;;4997067;28;20136;-90
2023/12/06 20:40:13;;;;;;;27.55;14.32;;;;;;;;;;4992373;28;20050;-90
2023/12/06 20:43:08;;;;;;;;;;;;;;;;;;;;;
2023/12/06 20:45:59;;;;;;;32.72;13.43;;;;;;;;;;4955698;28;20036;-89
2023/12/06 20:48:46;;;;;;;24.70;14.20;;;;;;;;;;5006003;28;20050;-90
2023/12/06 20:51:46;;;;;;;33.83;15.32;;;;;;;;;;5007723;28;20042;-89
2023/12/06 20:55:03;;;;;;;30.75;14.50;;;;;;;;;;4972725;28;20441;-90
2023/12/06 20:57:53;;;;;;;;;;;;;;;;;;;;;
2023/12/06 21:01:06;;;;;;;31.83;14.65;;;;;;;;;;5007416;28;20042;-89
2023/12/06 21:03:57;;;;;;;29.17;13.65;;;;;;;;;;4989914;28;20073;-90
2023/12/06 21:07:01;;;;;;;33.00;14.57;;;;;;;;;;5006990;28;20026;-90
2023/12/06 21:10:26;;;;;;;;;;;;;;;;;;;;;
2023/12/06 21:13:28;;;;;;;26.65;12.55;;;;;;;;;;5006553;28;20050;-89
2023/12/06 21:16:41;;;;;;;30.70;14.43;;;;;;;;;;4989734;28;20062;-90
2023/12/06 21:19:44;;;;;;;29.48;14.38;;;;;;;;;;4970368;28;20043;-91
2023/12/06 21:22:35;;;;;;;26.85;13.63;;;;;;;;;;4987213;28;20035;-90
2023/12/06 21:25:38;;;;;;;24.58;13.50;;;;;;;;;;4971827;28;20081;-90
2023/12/06 21:28:24;;;;;;;32.08;14.93;;;;;;;;;;4973340;28;20129;-91
2023/12/06 21:31:12;;;;;;;26.83;14.65;;;;;;;;;;4933426;29;20054;-92
2023/12/06 21:34:30;;;;;;;29.90;14.00;;;;;;;;;;4962868;28;20116;-89
2023/12/06 21:37:18;;;;;;;28.17;14.25;;;;;;;;;;4985672;28;20042;-90
2023/12/06 21:40:39;;;;;;;33.33;13.75;;;;;;;;;;4987777;28;20038;-90
2023/12/06 21:44:10;;;;;;;;;;;;;;;;;;;;;
2023/12/06 21:47:09;;;;;;;29.65;13.68;;;;;;;;;;4944491;28;20050;-90
2023/12/06 21:49:38;;;;;;;34.78;16.20;;;;;;;;;;4970683;28;20070;-90
2023/12/06 21:52:37;;;;;;;28.33;14.45;;;;;;;;;;4981865;28;20097;-91
2023/12/06 21:55:29;;;;;;;26.48;13.68;;;;;;;;;;4989073;28;20046;-90
2023/12/06 21:58:21;;;;;;;26.08;13.00;;;;;;;;;;4969909;28;20046;-90
2023/12/06 22:01:26;;;;;;;25.17;12.20;;;;;;;;;;4977064;28;20138;-90
2023/12/06 22:04:26;;;;;;;;;;;;;;;;;;;;;
2023/12/06 22:07:40;;;;;;;28.67;14.02;;;;;;;;;;5007970;28;20077;-90
2023/12/06 22:10:24;;;;;;;26.08;13.15;;;;;;;;;;5009037;28;20430;-91
2023/12/06 22:12:59;;;;;;;29.13;11.77;;;;;;;;;;5001737;28;20054;-92
2023/12/06 22:15:43;;;;;;;35.10;15.13;;;;;;;;;;5016703;28;20058;-93
2023/12/06 22:18:20;;;;;;;22.90;12.32;;;;;;;;;;4998387;28;20085;-92
2023/12/06 22:20:51;;;;;;;26.83;12.25;;;;;;;;;;4999283;28;20066;-93
2023/12/06 22:23:21;;;;;;;28.67;12.02;;;;;;;;;;4999097;28;20135;-93
2023/12/06 22:25:55;;;;;;;20.83;12.05;;;;;;;;;;4999235;28;20050;-93
2023/12/06 22:28:31;;;;;;;22.58;11.82;;;;;;;;;;5014933;28;20056;-92
2023/12/06 22:31:08;;;;;;;28.05;12.02;;;;;;;;;;4999751;28;20117;-94
2023/12/06 22:33:51;;;;;;;22.13;11.23;;;;;;;;;;4999867;28;20054;-92
2023/12/06 22:36:33;;;;;;;22.75;10.93;;;;;;;;;;4996523;28;20034;-93
2023/12/06 22:39:06;;;;;;;26.10;12.40;;;;;;;;;;4997440;28;20054;-93
2023/12/06 22:41:34;;;;;;;22.50;10.48;;;;;;;;;;5000412;28;20084;-93
2023/12/06 22:44:16;;;;;;;18.70;10.50;;;;;;;;;;5000523;28;20038;-90
2023/12/06 22:46:46;;;;;;;22.45;10.90;;;;;;;;;;5041875;23;20054;-92
2023/12/06 22:49:23;;;;;;;22.02;11.95;;;;;;;;;;4981104;28;20058;-94
2023/12/06 22:51:54;;;;;;;21.17;11.30;;;;;;;;;;4997142;28;20051;-91
2023/12/06 22:54:24;;;;;;;22.45;11.32;;;;;;;;;;4980474;28;20070;-92
2023/12/06 22:56:58;;;;;;;24.63;11.40;;;;;;;;;;4981133;28;20070;-92
2023/12/06 22:59:29;;;;;;;23.65;10.98;;;;;;;;;;5005275;23;20118;-92
2023/12/06 23:02:00;;;;;;;29.30;11.93;;;;;;;;;;5019576;28;20037;-94
2023/12/06 23:04:41;;;;;;;26.83;12.25;;;;;;;;;;5018365;28;20141;-92
2023/12/06 23:07:11;;;;;;;22.17;11.73;;;;;;;;;;5015736;28;20109;-92
2023/12/06 23:09:44;;;;;;;22.95;12.18;;;;;;;;;;5015817;28;20034;-93
2023/12/06 23:12:18;;;;;;;23.27;11.98;;;;;;;;;;5015202;28;20049;-94
2023/12/06 23:14:46;;;;;;;22.52;11.45;;;;;;;;;;5013737;28;20073;-93
2023/12/06 23:17:20;;;;;;;29.15;12.40;;;;;;;;;;5031827;28;20109;-94
2023/12/06 23:19:51;;;;;;;22.30;11.88;;;;;;;;;;5034287;28;20064;-93
2023/12/06 23:22:18;;;;;;;25.02;11.15;;;;;;;;;;5032101;28;20109;-93
2023/12/06 23:24:49;;;;;;;26.90;13.00;;;;;;;;;;5014924;28;20050;-91
2023/12/06 23:27:33;;;;;;;23.17;12.13;;;;;;;;;;5030072;28;20064;-92
2023/12/06 23:30:07;;;;;;;23.98;12.27;;;;;;;;;;5014461;28;20049;-92
2023/12/06 23:32:35;;;;;;;25.67;13.45;;;;;;;;;;5014409;28;20239;-92
2023/12/06 23:35:20;;;;;;;22.35;11.98;;;;;;;;;;5013815;28;20050;-93
2023/12/06 23:38:10;;;;;;;27.85;11.93;;;;;;;;;;5016330;28;20054;-91
2023/12/06 23:40:41;;;;;;;26.33;11.68;;;;;;;;;;5013333;28;20154;-93
2023/12/06 23:43:23;;;;;;;24.98;13.68;;;;;;;;;;5015037;28;20105;-93
2023/12/06 23:45:53;;;;;;;26.50;11.55;;;;;;;;;;5016297;28;20468;-93
2023/12/06 23:48:29;;;;;;;22.42;12.18;;;;;;;;;;5014609;28;20085;-93
2023/12/06 23:50:57;;;;;;;22.45;11.32;;;;;;;;;;5017062;28;20061;-91
2023/12/06 23:53:27;;;;;;;20.20;11.63;;;;;;;;;;5018467;28;20073;-93
2023/12/06 23:55:56;;;;;;;31.42;12.93;;;;;;;;;;5035318;28;20073;-92
2023/12/06 23:58:30;;;;;;;23.85;10.90;;;;;;;;;;5033315;28;20076;-93
